Time;durP1;ratioP1;P1;durP2;ratioP2;P2;SDS_P1;SDS_P2;PMS_P1;PMS_P2;Temp;Humidity;BMP_temperature;BMP_pressure;BME280_temperature;BME280_humidity;BME280_pressure;Samples;Min_cycle;Max_cycle;Signal;HPM_P1;HPM_P2
2022/08/26 00:01:18;;;;;;;7.23;4.87;;;23.60;74.00;24.20;96264.00;;;;5101595;28;20258;-83
2022/08/26 00:03:45;;;;;;;5.43;4.63;;;23.60;74.10;24.20;96267.00;;;;5101915;28;20259;-83
2022/08/26 00:06:12;;;;;;;5.20;4.60;;;23.60;74.20;24.20;96263.00;;;;5112551;28;20635;-85
2022/08/26 00:08:40;;;;;;;6.00;4.63;;;23.60;74.30;24.20;96266.00;;;;5112363;28;20206;-83
2022/08/26 00:11:08;;;;;;;6.73;4.83;;;23.60;74.40;24.20;96264.00;;;;5113491;28;20591;-83
2022/08/26 00:13:38;;;;;;;5.57;4.50;;;23.60;74.40;24.30;96266.00;;;;5101449;28;20212;-85
2022/08/26 00:16:08;;;;;;;5.17;4.67;;;23.60;75.20;24.20;96266.00;;;;5102875;28;20541;-83
2022/08/26 00:18:36;;;;;;;5.67;4.40;;;23.60;74.30;24.20;96264.00;;;;5097192;28;20222;-83
2022/08/26 00:21:03;;;;;;;4.63;4.23;;;23.60;74.30;24.20;96262.00;;;;5112447;28;20197;-84
2022/08/26 00:23:31;;;;;;;6.67;4.57;;;23.60;74.30;24.20;96268.00;;;;5095386;28;20746;-84
2022/08/26 00:25:59;;;;;;;6.43;4.50;;;23.60;74.20;24.20;96262.00;;;;5101529;28;20243;-83
2022/08/26 00:28:27;;;;;;;6.13;5.10;;;23.60;74.10;24.10;96264.00;;;;5105332;28;20238;-83
2022/08/26 00:30:56;;;;;;;5.23;4.67;;;23.60;74.00;24.10;96260.00;;;;5095189;28;20208;-83
2022/08/26 00:33:23;;;;;;;5.37;4.77;;;23.50;74.70;24.10;96256.00;;;;5079284;28;20226;-82
2022/08/26 00:35:51;;;;;;;4.87;4.40;;;23.50;73.90;24.10;96258.00;;;;5095027;28;20253;-84
2022/08/26 00:38:20;;;;;;;5.10;4.37;;;23.50;73.90;24.00;96258.00;;;;5095837;28;20654;-85
2022/08/26 00:40:51;;;;;;;5.00;4.40;;;23.50;73.90;24.00;96254.00;;;;5096990;28;20202;-84
2022/08/26 00:43:19;;;;;;;5.20;4.63;;;23.50;74.10;24.00;96260.00;;;;5111751;28;20612;-84
2022/08/26 00:45:52;;;;;;;5.00;4.50;;;23.40;74.10;24.00;96256.00;;;;5100287;28;20620;-84
2022/08/26 00:48:25;;;;;;;5.07;4.57;;;23.40;74.50;24.00;96254.00;;;;5095260;28;20200;-84
2022/08/26 00:51:03;;;;;;;5.33;4.80;;;23.40;74.70;24.00;96258.00;;;;5084299;28;20289;-83
2022/08/26 00:53:36;;;;;;;5.47;4.97;;;23.40;74.70;24.00;96253.00;;;;5085105;28;20594;-84
2022/08/26 00:56:13;;;;;;;7.27;5.20;;;23.40;74.70;24.00;96248.00;;;;5098291;28;20256;-83
2022/08/26 00:58:41;;;;;;;8.37;5.53;;;23.40;74.70;23.90;96253.00;;;;5102531;28;20653;-83
2022/08/26 01:01:10;;;;;;;5.97;5.03;;;23.40;74.60;23.90;96250.00;;;;5101653;28;20254;-84
2022/08/26 01:03:41;;;;;;;5.23;4.57;;;23.40;74.60;23.90;96253.00;;;;5114953;28;20237;-85
2022/08/26 01:06:10;;;;;;;5.00;4.47;;;23.30;74.40;23.90;96252.00;;;;5104619;28;20211;-85
2022/08/26 01:08:37;;;;;;;5.83;5.33;;;23.30;74.40;23.80;96258.00;;;;5098054;28;20211;-84
2022/08/26 01:11:06;;;;;;;6.43;4.87;;;23.30;74.40;23.80;96248.00;;;;5109594;28;20223;-84
2022/08/26 01:13:33;;;;;;;4.70;4.23;;;23.30;74.40;23.80;96244.00;;;;5090703;28;20893;-84
2022/08/26 01:16:05;;;;;;;5.40;4.87;;;23.30;74.40;23.80;96248.00;;;;5092528;28;20224;-84
2022/08/26 01:18:33;;;;;;;5.33;4.53;;;23.20;74.50;23.80;96247.00;;;;5088176;28;20199;-84
2022/08/26 01:21:12;;;;;;;4.90;4.40;;;23.20;74.40;23.70;96246.00;;;;5098212;28;20221;-84
2022/08/26 01:23:46;;;;;;;5.63;4.90;;;23.20;74.60;23.70;96244.00;;;;5094690;28;20310;-84
2022/08/26 01:26:21;;;;;;;5.67;4.47;;;23.20;74.50;23.70;96252.00;;;;5085573;28;20283;-84
2022/08/26 01:28:53;;;;;;;5.30;4.80;;;23.20;74.50;23.70;96255.00;;;;5072920;28;20617;-84
2022/08/26 01:31:25;;;;;;;4.77;4.30;;;23.20;74.70;23.70;96253.00;;;;5073527;28;20188;-84
2022/08/26 01:34:01;;;;;;;4.73;4.33;;;23.20;74.80;23.70;96259.00;;;;5098625;28;20225;-84
2022/08/26 01:36:29;;;;;;;5.03;4.13;;;23.10;74.90;23.70;96256.00;;;;5107936;22;20230;-86
2022/08/26 01:38:58;;;;;;;6.63;4.67;;;23.10;75.00;23.70;96253.00;;;;5089626;28;20195;-86
2022/08/26 01:41:27;;;;;;;6.53;5.33;;;23.10;75.30;23.70;96253.00;;;;5089912;28;20249;-87
2022/08/26 01:43:57;;;;;;;5.97;5.37;;;23.10;75.40;23.70;96252.00;;;;5092582;28;20251;-86
2022/08/26 01:46:28;;;;;;;5.63;5.10;;;23.10;75.50;23.70;96256.00;;;;5092909;28;20272;-86
2022/08/26 01:49:00;;;;;;;5.03;4.63;;;23.10;75.50;23.70;96258.00;;;;5093678;28;20278;-87
2022/08/26 01:51:30;;;;;;;5.47;5.00;;;23.10;75.50;23.70;96251.00;;;;5093328;28;20227;-87
2022/08/26 01:54:00;;;;;;;5.33;4.77;;;23.10;75.40;23.70;96258.00;;;;5094998;28;20238;-86
2022/08/26 01:56:27;;;;;;;7.40;4.47;;;23.10;76.20;23.70;96252.00;;;;5094660;28;20302;-86
2022/08/26 01:58:57;;;;;;;5.17;4.63;;;23.10;75.30;23.60;96242.00;;;;5095120;28;20195;-86
2022/08/26 02:01:27;;;;;;;5.87;5.17;;;23.10;75.30;23.60;96257.00;;;;5094838;28;20286;-86
2022/08/26 02:04:03;;;;;;;5.17;4.67;;;23.00;75.20;23.60;96260.00;;;;5094626;28;20746;-86
2022/08/26 02:06:31;;;;;;;5.57;4.90;;;23.10;75.30;23.60;96256.00;;;;5085142;28;20819;-86
2022/08/26 02:09:02;;;;;;;5.73;4.27;;;23.00;75.10;23.50;96261.00;;;;5092347;28;20231;-87
2022/08/26 02:11:29;;;;;;;6.67;5.10;;;23.00;75.30;23.50;96262.00;;;;5095635;28;20184;-86
2022/08/26 02:14:04;;;;;;;5.37;4.87;;;23.00;75.30;23.50;96256.00;;;;5094947;28;20664;-87
2022/08/26 02:16:39;;;;;;;5.37;4.63;;;23.00;75.30;23.50;96264.00;;;;5095035;28;20376;-86
2022/08/26 02:19:10;;;;;;;6.13;4.63;;;23.00;75.20;23.50;96261.00;;;;5095393;28;20218;-86
2022/08/26 02:21:39;;;;;;;5.43;5.00;;;22.90;75.20;23.40;96259.00;;;;5095234;28;20218;-86
2022/08/26 02:24:15;;;;;;;4.77;4.37;;;22.90;75.20;23.40;96258.00;;;;5095886;28;20618;-87
2022/08/26 02:26:43;;;;;;;5.73;5.07;;;22.90;75.30;23.40;96258.00;;;;5095599;28;20325;-87
2022/08/26 02:29:19;;;;;;;4.73;4.33;;;22.90;75.20;23.30;96258.00;;;;5095921;28;20223;-87
2022/08/26 02:31:47;;;;;;;5.57;4.53;;;22.90;75.20;23.30;96261.00;;;;5095401;28;20195;-86
2022/08/26 02:34:19;;;;;;;5.37;4.87;;;22.80;75.10;23.30;96257.00;;;;5095686;28;20249;-86
2022/08/26 02:36:48;;;;;;;4.90;4.50;;;22.80;75.10;23.30;96254.00;;;;5094846;28;20344;-87
2022/08/26 02:39:16;;;;;;;5.30;4.87;;;22.80;75.10;23.20;96249.00;;;;5095564;28;20245;-86
2022/08/26 02:41:45;;;;;;;8.57;5.37;;;22.80;75.30;23.20;96248.00;;;;5095360;28;20249;-86
2022/08/26 02:44:12;;;;;;;5.30;4.63;;;22.70;75.20;23.20;96248.00;;;;5095357;28;20310;-86
2022/08/26 02:46:40;;;;;;;5.13;4.67;;;22.70;75.40;23.20;96245.00;;;;5094619;28;20211;-87
2022/08/26 02:49:08;;;;;;;5.77;5.30;;;22.70;75.50;23.20;96252.00;;;;5095387;28;20195;-86
2022/08/26 02:51:35;;;;;;;5.77;5.10;;;22.70;75.70;23.10;96248.00;;;;5095045;28;20645;-87
2022/08/26 02:54:03;;;;;;;5.97;5.30;;;22.70;76.10;23.10;96245.00;;;;5094792;28;20245;-87
2022/08/26 02:56:33;;;;;;;5.87;5.33;;;22.60;76.30;23.10;96243.00;;;;5084087;28;20215;-86
2022/08/26 02:59:00;;;;;;;6.57;5.67;;;22.60;76.40;23.10;96241.00;;;;5075054;28;20673;-87
2022/08/26 03:01:33;;;;;;;5.67;5.17;;;22.60;76.40;23.10;96240.00;;;;5076250;28;20220;-86
2022/08/26 03:04:03;;;;;;;6.20;5.13;;;22.60;76.50;23.10;96246.00;;;;5095038;28;20288;-87
2022/08/26 03:06:31;;;;;;;5.90;5.30;;;22.60;76.40;23.10;96245.00;;;;5095415;28;20250;-86
2022/08/26 03:08:58;;;;;;;7.27;5.33;;;22.60;76.40;23.10;96251.00;;;;5095730;28;20242;-87
2022/08/26 03:11:25;;;;;;;7.60;5.90;;;22.60;76.50;23.10;96241.00;;;;5094537;28;20299;-86
2022/08/26 03:13:54;;;;;;;6.17;5.47;;;22.60;77.30;23.10;96237.00;;;;5094824;28;20253;-86
2022/08/26 03:16:21;;;;;;;5.93;5.40;;;22.60;76.50;23.10;96242.00;;;;5094075;28;20273;-87
2022/08/26 03:18:48;;;;;;;6.20;5.50;;;22.60;76.40;23.00;96238.00;;;;5095218;28;20286;-87
2022/08/26 03:21:18;;;;;;;7.10;5.80;;;22.60;76.40;23.00;96235.00;;;;5094337;28;20724;-86
2022/08/26 03:23:46;;;;;;;5.73;5.20;;;22.50;76.40;23.00;96236.00;;;;5092171;28;20310;-86
2022/08/26 03:26:15;;;;;;;5.83;5.23;;;22.50;76.30;23.00;96227.00;;;;5092810;28;20302;-87
2022/08/26 03:31:25;;;;;;;5.47;4.97;;;22.50;76.30;23.00;96223.00;;;;5092982;28;20622;-86
2022/08/26 03:33:53;;;;;;;5.47;4.97;;;22.50;76.50;23.00;96227.00;;;;5093955;28;20223;-86
2022/08/26 03:36:21;;;;;;;5.90;5.00;;;22.50;76.50;23.00;96228.00;;;;5093909;28;20659;-86
2022/08/26 03:38:48;;;;;;;5.87;5.13;;;22.50;76.50;23.00;96232.00;;;;5094085;28;20438;-87
2022/08/26 03:41:16;;;;;;;5.30;4.80;;;22.50;76.50;23.00;96221.00;;;;5094250;28;20820;-86
2022/08/26 03:43:46;;;;;;;6.33;5.53;;;22.50;76.40;23.00;96238.00;;;;5094376;28;20238;-87
2022/08/26 03:46:14;;;;;;;7.40;5.93;;;22.50;76.40;22.90;96238.00;;;;5093639;28;20218;-87
2022/08/26 03:48:44;;;;;;;5.03;4.60;;;22.40;76.30;22.90;96235.00;;;;5094300;28;20230;-87
2022/08/26 03:51:15;;;;;;;6.00;5.00;;;22.40;76.20;22.90;96234.00;;;;5094228;28;20195;-86
2022/08/26 03:53:43;;;;;;;5.43;4.93;;;22.40;76.10;22.80;96230.00;;;;5094420;28;20241;-86
2022/08/26 03:56:10;;;;;;;5.37;4.83;;;22.40;76.00;22.80;96234.00;;;;5093940;28;20306;-87
2022/08/26 03:58:38;;;;;;;7.97;4.97;;;22.30;76.10;22.80;96239.00;;;;5094242;28;20219;-86
2022/08/26 04:01:05;;;;;;;5.90;5.33;;;22.30;76.40;22.80;96238.00;;;;5087380;28;20226;-87
2022/08/26 04:06:19;;;;;;;6.33;5.43;;;22.30;76.50;22.70;96233.00;;;;5092642;28;20284;-87
2022/08/26 04:08:46;;;;;;;5.37;4.70;;;22.30;76.40;22.70;96232.00;;;;5093676;28;20238;-87
2022/08/26 04:11:19;;;;;;;6.90;5.27;;;22.30;76.40;22.70;96231.00;;;;5093439;28;20218;-86
2022/08/26 04:13:47;;;;;;;7.30;5.87;;;22.20;76.50;22.70;96227.00;;;;5093880;28;20221;-87
2022/08/26 04:16:16;;;;;;;5.40;5.00;;;22.20;76.60;22.70;96227.00;;;;5092664;28;20219;-86
2022/08/26 04:18:43;;;;;;;5.23;4.63;;;22.20;76.70;22.70;96223.00;;;;5093523;28;20203;-86
2022/08/26 04:21:11;;;;;;;5.57;5.03;;;22.20;76.70;22.70;96227.00;;;;5093001;28;20250;-86
2022/08/26 04:23:40;;;;;;;5.60;4.70;;;22.20;76.70;22.70;96221.00;;;;5092885;28;20701;-87
2022/08/26 04:26:07;;;;;;;4.87;4.53;;;22.20;76.70;22.60;96227.00;;;;5092662;28;20229;-86
2022/08/26 04:28:35;;;;;;;5.63;5.10;;;22.20;76.70;22.60;96231.00;;;;5093415;28;20251;-86
2022/08/26 04:31:03;;;;;;;5.73;5.23;;;22.10;76.60;22.60;96227.00;;;;5092670;28;20656;-87
2022/08/26 04:33:30;;;;;;;4.73;4.33;;;22.10;76.60;22.60;96231.00;;;;5074303;28;20408;-87
2022/08/26 04:36:02;;;;;;;5.97;5.40;;;22.10;76.60;22.60;96230.00;;;;5075014;28;20265;-86
2022/08/26 04:38:29;;;;;;;8.33;5.33;;;22.10;76.70;22.60;96230.00;;;;5093021;28;20567;-86
2022/08/26 04:40:58;;;;;;;6.60;5.37;;;22.10;76.70;22.50;96230.00;;;;5092685;28;20200;-87
2022/08/26 04:43:29;;;;;;;5.70;5.13;;;22.10;76.90;22.50;96236.00;;;;5092754;28;20663;-87
2022/08/26 04:45:58;;;;;;;7.03;5.27;;;22.10;76.90;22.50;96233.00;;;;5092502;28;20663;-86
2022/08/26 04:48:26;;;;;;;5.63;5.13;;;22.00;76.90;22.50;96237.00;;;;5092493;28;20199;-86
2022/08/26 04:50:53;;;;;;;6.27;5.30;;;22.00;77.00;22.50;96231.00;;;;5092740;28;20285;-86
2022/08/26 04:53:21;;;;;;;7.33;5.50;;;22.00;77.10;22.50;96236.00;;;;5092444;28;20242;-86
2022/08/26 04:55:48;;;;;;;5.53;5.03;;;22.00;77.20;22.50;96232.00;;;;5091980;28;20242;-86
2022/08/26 04:58:19;;;;;;;6.37;5.73;;;22.00;77.30;22.60;96238.00;;;;5092880;28;20278;-86
2022/08/26 05:00:48;;;;;;;5.30;4.80;;;22.00;77.30;22.60;96241.00;;;;5092992;28;20243;-86
2022/08/26 05:03:17;;;;;;;6.03;5.20;;;22.00;77.40;22.60;96248.00;;;;5076134;28;20526;-86
2022/08/26 05:05:48;;;;;;;7.13;5.23;;;22.00;77.50;22.60;96240.00;;;;5072097;28;20219;-86
2022/08/26 05:08:17;;;;;;;7.03;5.80;;;22.00;77.70;22.60;96239.00;;;;5071964;28;20195;-86
2022/08/26 05:10:48;;;;;;;8.17;5.50;;;22.00;77.80;22.60;96239.00;;;;5071441;28;20195;-86
2022/08/26 05:13:19;;;;;;;7.17;5.67;;;22.10;78.00;22.70;96241.00;;;;5071792;28;20239;-86
2022/08/26 05:15:48;;;;;;;7.90;5.63;;;22.10;78.90;22.70;96239.00;;;;5071759;28;20301;-87
2022/08/26 05:18:17;;;;;;;5.33;4.83;;;22.10;78.30;22.70;96248.00;;;;5074236;28;20200;-87
2022/08/26 05:20:49;;;;;;;6.87;5.73;;;22.10;78.50;22.80;96251.00;;;;5076315;28;20219;-86
2022/08/26 05:23:18;;;;;;;5.60;5.10;;;22.10;78.50;22.80;96251.00;;;;5076070;28;20210;-86
2022/08/26 05:25:47;;;;;;;6.63;6.03;;;22.20;78.70;22.90;96243.00;;;;5075605;28;20219;-87
2022/08/26 05:28:18;;;;;;;8.10;6.97;;;22.20;78.90;22.90;96246.00;;;;5075900;28;20227;-86
2022/08/26 05:30:46;;;;;;;9.77;6.80;;;22.20;79.00;23.00;96246.00;;;;5076200;28;20223;-87
2022/08/26 05:33:13;;;;;;;8.10;6.13;;;22.30;79.20;23.00;96242.00;;;;5076158;28;20283;-86
2022/08/26 05:35:41;;;;;;;7.27;6.57;;;22.40;79.40;23.10;96248.00;;;;5076935;28;20262;-86
2022/08/26 05:38:11;;;;;;;8.03;6.77;;;22.40;79.70;23.20;96254.00;;;;5096115;28;20230;-86
2022/08/26 05:40:41;;;;;;;7.77;6.33;;;22.40;79.90;23.30;96252.00;;;;5096945;28;20234;-86
2022/08/26 05:43:09;;;;;;;9.07;7.30;;;22.50;80.00;23.30;96257.00;;;;5096484;28;20249;-87
2022/08/26 05:45:40;;;;;;;9.33;6.77;;;22.60;80.10;23.40;96256.00;;;;5095259;28;20310;-86
2022/08/26 05:48:08;;;;;;;8.80;7.13;;;22.60;80.20;23.50;96252.00;;;;5096003;28;20233;-86
2022/08/26 05:50:37;;;;;;;9.83;7.50;;;22.70;80.20;23.50;96254.00;;;;5095816;28;20198;-87
2022/08/26 05:53:06;;;;;;;9.90;7.50;;;22.80;80.10;23.60;96248.00;;;;5095945;28;20223;-87
2022/08/26 05:55:34;;;;;;;9.83;7.57;;;22.80;80.00;23.70;96253.00;;;;5095990;28;20246;-87
2022/08/26 05:58:01;;;;;;;8.53;7.63;;;22.90;80.10;23.80;96256.00;;;;5096132;28;20263;-87
2022/08/26 06:00:28;;;;;;;9.63;8.40;;;23.00;80.20;23.90;96257.00;;;;5095934;28;20695;-87
2022/08/26 06:02:57;;;;;;;7.77;6.97;;;23.10;80.20;24.00;96251.00;;;;5095817;28;20242;-87
2022/08/26 06:05:24;;;;;;;9.93;7.70;;;23.10;80.10;24.00;96252.00;;;;5095327;28;20262;-86
2022/08/26 06:10:36;;;;;;;7.87;6.20;;;23.30;80.10;24.10;96262.00;;;;5095343;28;20205;-87
2022/08/26 06:13:04;;;;;;;10.50;6.60;;;23.30;79.80;24.20;96258.00;;;;5094975;28;20203;-91
2022/08/26 06:15:31;;;;;;;8.43;7.17;;;23.40;79.80;24.30;96258.00;;;;5094566;28;20222;-90
2022/08/26 06:18:00;;;;;;;9.40;7.30;;;23.50;79.80;24.30;96254.00;;;;5094557;28;20191;-90
2022/08/26 06:20:27;;;;;;;7.70;6.70;;;23.50;79.80;24.40;96257.00;;;;5094846;28;20197;-89
2022/08/26 06:25:39;;;;;;;7.60;6.77;;;23.60;79.70;24.60;96263.00;;;;5094724;28;20239;-90
2022/08/26 06:28:07;;;;;;;10.50;8.07;;;23.70;79.40;24.70;96268.00;;;;5095089;28;20331;-90
2022/08/26 06:30:40;;;;;;;8.63;7.33;;;23.80;79.40;24.70;96266.00;;;;5093877;28;20195;-90
2022/08/26 06:33:09;;;;;;;9.47;6.87;;;23.80;79.40;24.80;96258.00;;;;5094836;28;20211;-89
2022/08/26 06:35:38;;;;;;;7.67;6.97;;;23.90;79.30;24.90;96266.00;;;;5094789;28;20228;-89
2022/08/26 06:38:06;;;;;;;10.57;7.07;;;24.00;79.20;24.90;96268.00;;;;5094894;28;20566;-89
2022/08/26 06:40:35;;;;;;;9.03;7.43;;;24.10;79.10;25.00;96276.00;;;;5094319;28;20209;-89
2022/08/26 06:43:02;;;;;;;8.57;6.60;;;24.10;79.10;25.10;96273.00;;;;5094638;28;20207;-89
2022/08/26 06:45:29;;;;;;;9.93;7.90;;;24.20;79.00;25.20;96269.00;;;;5094518;28;20321;-89
2022/08/26 06:47:57;;;;;;;9.10;7.87;;;24.30;78.90;25.30;96274.00;;;;5094458;28;20229;-90
2022/08/26 06:50:26;;;;;;;8.10;7.27;;;24.30;78.50;25.30;96275.00;;;;5094586;28;20195;-89
2022/08/26 06:52:53;;;;;;;8.23;7.10;;;24.40;78.40;25.40;96280.00;;;;5094364;28;20216;-91
2022/08/26 06:55:20;;;;;;;7.93;7.13;;;24.50;78.30;25.50;96275.00;;;;5094250;28;20249;-89
2022/08/26 06:57:47;;;;;;;9.30;7.43;;;24.60;78.20;25.60;96278.00;;;;5093997;28;20205;-90
2022/08/26 07:00:17;;;;;;;7.47;6.87;;;24.60;78.20;25.70;96272.00;;;;5094249;28;20282;-89
2022/08/26 07:02:44;;;;;;;9.60;6.87;;;24.70;78.20;25.70;96271.00;;;;5094458;28;20607;-89
2022/08/26 07:05:11;;;;;;;8.37;7.23;;;24.80;78.20;25.80;96275.00;;;;5094687;28;20317;-89
2022/08/26 07:07:40;;;;;;;7.43;6.73;;;24.90;78.70;25.90;96273.00;;;;5095478;28;20191;-89
2022/08/26 07:10:09;;;;;;;9.00;7.57;;;24.90;77.60;25.90;96278.00;;;;5095168;28;20344;-90
2022/08/26 07:12:37;;;;;;;9.03;6.73;;;25.00;77.40;26.00;96278.00;;;;5094963;28;20218;-89
2022/08/26 07:15:06;;;;;;;7.73;6.93;;;25.10;77.50;26.10;96285.00;;;;5094781;28;20230;-89
2022/08/26 07:17:33;;;;;;;9.37;7.13;;;25.10;77.30;26.10;96284.00;;;;5094076;28;20227;-89
2022/08/26 07:20:02;;;;;;;10.67;7.30;;;25.20;77.30;26.20;96288.00;;;;5094897;28;20280;-90
2022/08/26 07:22:29;;;;;;;11.53;7.43;;;25.20;77.20;26.30;96280.00;;;;5094268;28;20256;-89
2022/08/26 07:24:57;;;;;;;11.33;7.57;;;25.40;77.20;26.40;96284.00;;;;5093912;28;20695;-89
2022/08/26 07:27:25;;;;;;;7.47;6.77;;;25.40;77.10;26.50;96283.00;;;;5094318;28;20230;-89
2022/08/26 07:29:56;;;;;;;8.07;6.97;;;25.50;76.80;26.50;96282.00;;;;5093872;28;20729;-92
2022/08/26 07:32:24;;;;;;;7.47;6.63;;;25.50;76.70;26.60;96282.00;;;;5094083;28;20664;-89
2022/08/26 07:34:51;;;;;;;8.00;6.93;;;25.60;76.70;26.60;96285.00;;;;5093702;28;20199;-90
2022/08/26 07:37:19;;;;;;;11.50;8.20;;;25.70;76.70;26.70;96285.00;;;;5093880;28;20278;-90
2022/08/26 07:39:46;;;;;;;8.03;7.23;;;25.70;76.30;26.70;96284.00;;;;5093108;28;20588;-91
2022/08/26 07:42:18;;;;;;;9.67;7.80;;;25.80;76.00;26.80;96286.00;;;;5092768;28;20195;-89
2022/08/26 07:44:46;;;;;;;8.40;7.50;;;25.80;75.60;26.80;96284.00;;;;5092661;28;20211;-90
2022/08/26 07:47:14;;;;;;;7.13;6.43;;;25.90;75.50;26.90;96286.00;;;;5093089;28;20549;-90
2022/08/26 07:49:41;;;;;;;7.70;6.97;;;26.00;75.30;26.90;96286.00;;;;5092868;28;20211;-90
2022/08/26 07:52:08;;;;;;;7.93;7.23;;;26.00;75.30;26.90;96288.00;;;;5092531;28;20203;-89
2022/08/26 07:54:36;;;;;;;11.83;8.07;;;26.00;75.00;27.00;96284.00;;;;5092011;28;20288;-90
2022/08/26 07:57:04;;;;;;;7.47;6.60;;;26.10;75.10;27.00;96293.00;;;;5092536;28;20257;-90
2022/08/26 07:59:33;;;;;;;6.83;6.13;;;26.10;75.00;27.10;96290.00;;;;5092582;28;20687;-90
2022/08/26 08:02:00;;;;;;;9.47;6.77;;;26.20;75.00;27.10;96287.00;;;;5087105;28;20235;-89
2022/08/26 08:04:28;;;;;;;7.23;6.53;;;26.20;74.90;27.20;96287.00;;;;5071711;28;20652;-90
2022/08/26 08:06:56;;;;;;;10.67;6.87;;;26.30;74.90;27.30;96287.00;;;;5072212;28;20220;-90
2022/08/26 08:09:24;;;;;;;10.97;6.83;;;26.30;75.00;27.30;96283.00;;;;5070025;28;20645;-89
2022/08/26 08:11:51;;;;;;;8.53;6.70;;;26.30;74.70;27.40;96288.00;;;;5072141;28;20199;-90
2022/08/26 08:14:19;;;;;;;9.23;7.00;;;26.40;74.60;27.40;96287.00;;;;5075841;28;20198;-89
2022/08/26 08:16:47;;;;;;;7.10;6.40;;;26.50;74.70;27.50;96286.00;;;;5092074;28;20247;-89
2022/08/26 08:19:15;;;;;;;7.33;6.00;;;26.50;74.80;27.60;96289.00;;;;5092312;28;20280;-90
2022/08/26 08:21:43;;;;;;;8.03;6.30;;;26.60;74.60;27.70;96287.00;;;;5092403;28;20278;-90
2022/08/26 08:24:11;;;;;;;7.03;6.07;;;26.70;74.40;27.70;96283.00;;;;5092284;28;20676;-90
2022/08/26 08:26:39;;;;;;;8.13;6.50;;;26.70;74.00;27.80;96280.00;;;;5092231;28;20259;-89
2022/08/26 08:29:07;;;;;;;9.23;5.97;;;26.80;74.10;27.90;96280.00;;;;5091560;28;20234;-89
2022/08/26 08:31:36;;;;;;;7.00;5.47;;;26.80;74.10;27.90;96290.00;;;;5090378;28;20656;-89
2022/08/26 08:34:05;;;;;;;7.57;5.73;;;26.90;74.20;28.00;96288.00;;;;5072175;28;20220;-90
2022/08/26 08:36:33;;;;;;;7.47;5.70;;;27.00;74.30;28.00;96286.00;;;;5072181;28;20313;-89
2022/08/26 08:39:00;;;;;;;7.00;5.57;;;27.00;73.80;28.10;96282.00;;;;5071613;28;20231;-90
2022/08/26 08:41:47;;;;;;;7.47;5.20;;;27.10;73.70;28.10;96283.00;;;;5072337;28;20275;-90
2022/08/26 08:44:19;;;;;;;12.57;5.30;;;27.10;73.70;28.20;96277.00;;;;5072354;28;20258;-90
2022/08/26 08:46:51;;;;;;;6.73;5.13;;;27.20;73.70;28.30;96287.00;;;;5071864;28;20247;-90
2022/08/26 08:49:21;;;;;;;7.17;5.80;;;27.20;73.20;28.30;96284.00;;;;5072042;28;20200;-90
2022/08/26 08:51:55;;;;;;;6.77;5.73;;;27.30;72.70;28.40;96282.00;;;;5072035;28;20219;-90
2022/08/26 08:54:25;;;;;;;7.57;5.17;;;27.40;72.70;28.50;96290.00;;;;5071985;28;20189;-91
2022/08/26 08:57:01;;;;;;;7.17;6.00;;;27.40;72.60;28.60;96284.00;;;;5072329;28;20223;-90
2022/08/26 08:59:34;;;;;;;6.00;5.23;;;27.50;72.90;28.60;96286.00;;;;5072565;28;20192;-90
2022/08/26 09:02:10;;;;;;;7.27;4.43;;;27.60;72.80;28.70;96283.00;;;;5077847;28;20187;-90
2022/08/26 09:05:05;;;;;;;6.23;5.57;;;27.60;72.90;28.80;96280.00;;;;5091067;28;20265;-90
2022/08/26 09:07:38;;;;;;;5.95;5.15;;;27.70;71.80;28.90;96282.00;;;;5092728;28;20731;-89
2022/08/26 09:10:32;;;;;;;4.97;4.47;;;27.80;72.50;29.00;96280.00;;;;5092764;28;20198;-89
2022/08/26 09:13:02;;;;;;;6.32;4.53;;;27.90;72.40;29.10;96285.00;;;;5092617;28;20227;-91
2022/08/26 09:15:42;;;;;;;6.25;5.28;;;27.90;72.60;29.20;96278.00;;;;5091180;28;20720;-91
2022/08/26 09:18:27;;;;;;;5.43;4.85;;;28.00;71.70;29.30;96282.00;;;;5092352;28;20226;-89
2022/08/26 09:21:02;;;;;;;5.28;4.72;;;28.10;71.40;29.40;96290.00;;;;5092499;28;20199;-90
2022/08/26 09:23:29;;;;;;;6.70;4.97;;;28.20;71.40;29.50;96290.00;;;;5092854;28;20199;-89
2022/08/26 09:26:00;;;;;;;6.20;4.50;;;28.30;70.90;29.60;96283.00;;;;5092202;28;20257;-90
2022/08/26 09:28:31;;;;;;;5.28;4.78;;;28.40;70.80;29.60;96278.00;;;;5092689;28;20198;-90
2022/08/26 09:31:10;;;;;;;10.68;6.03;;;28.40;70.40;29.70;96283.00;;;;5092788;28;20199;-90
2022/08/26 09:33:38;;;;;;;5.05;4.47;;;28.50;69.80;29.80;96286.00;;;;5092572;28;20268;-90
2022/08/26 09:36:24;;;;;;;6.85;5.15;;;28.60;70.00;29.90;96279.00;;;;5092148;28;20239;-91
2022/08/26 09:38:53;;;;;;;5.88;5.10;;;28.70;69.50;30.00;96278.00;;;;5092030;28;20215;-91
2022/08/26 09:41:30;;;;;;;5.30;4.80;;;28.80;69.90;30.10;96283.00;;;;5092397;28;20200;-91
2022/08/26 09:44:17;;;;;;;5.82;4.45;;;28.90;69.90;30.10;96271.00;;;;5092553;28;20214;-91
2022/08/26 09:46:55;;;;;;;4.95;4.18;;;29.00;69.10;30.30;96277.00;;;;5091804;28;20343;-92
2022/08/26 09:49:28;;;;;;;4.50;4.10;;;29.00;69.10;30.40;96274.00;;;;5099812;28;20222;-92
2022/08/26 09:52:20;;;;;;;4.55;3.92;;;29.10;69.10;30.60;96269.00;;;;5097128;28;20203;-92
2022/08/26 09:55:06;;;;;;;5.38;4.38;;;29.30;68.30;30.80;96271.00;;;;5097628;28;20637;-91
2022/08/26 09:57:36;;;;;;;4.60;4.18;;;29.40;68.20;31.00;96259.00;;;;5096140;28;20176;-91
2022/08/26 10:00:26;;;;;;;5.35;3.85;;;29.50;68.50;31.10;96259.00;;;;5095207;28;20244;-91
2022/08/26 10:02:54;;;;;;;5.22;4.15;;;29.70;67.10;31.30;96253.00;;;;5094136;28;20266;-91
2022/08/26 10:05:32;;;;;;;4.65;4.25;;;29.80;68.60;31.50;96250.00;;;;5097159;28;20215;-91
2022/08/26 10:08:17;;;;;;;4.13;3.80;;;30.00;68.50;31.70;96243.00;;;;5097082;28;20219;-92
2022/08/26 10:10:46;;;;;;;4.43;4.03;;;30.20;68.00;31.90;96248.00;;;;5096642;28;20214;-92
2022/08/26 10:13:21;;;;;;;8.73;4.00;;;30.40;67.40;32.10;96249.00;;;;5096158;28;20218;-92
2022/08/26 10:16:03;;;;;;;4.55;3.95;;;30.50;66.70;32.20;96238.00;;;;5095986;28;20222;-91
2022/08/26 10:18:35;;;;;;;5.72;4.03;;;30.70;65.20;32.30;96234.00;;;;5096315;28;20207;-92
2022/08/26 10:21:10;;;;;;;4.43;4.03;;;30.90;65.80;32.40;96228.00;;;;5095938;28;20215;-92
2022/08/26 10:23:46;;;;;;;4.38;3.80;;;31.00;65.20;32.60;96233.00;;;;5095637;28;20199;-92
2022/08/26 10:26:22;;;;;;;4.15;3.28;;;31.20;64.70;32.80;96221.00;;;;5095802;28;20222;-91
2022/08/26 10:29:02;;;;;;;4.97;3.42;;;31.30;63.90;32.90;96220.00;;;;5096475;28;20195;-92
2022/08/26 10:31:40;;;;;;;3.33;2.97;;;31.50;63.40;33.10;96218.00;;;;5096150;28;20818;-91
2022/08/26 10:34:08;;;;;;;4.60;3.47;;;31.70;62.90;33.30;96219.00;;;;5096358;28;20226;-91
2022/08/26 10:36:49;;;;;;;5.88;3.85;;;31.90;62.80;33.40;96207.00;;;;5096137;28;20649;-91
2022/08/26 10:39:27;;;;;;;5.82;3.75;;;32.00;62.40;33.60;96207.00;;;;5095830;28;20614;-91
2022/08/26 10:42:04;;;;;;;6.15;3.70;;;32.30;61.20;33.70;96199.00;;;;5096411;28;20179;-90
2022/08/26 10:44:37;;;;;;;4.82;3.25;;;32.50;60.40;33.80;96203.00;;;;5095631;28;20252;-90
2022/08/26 10:47:18;;;;;;;3.75;3.38;;;32.60;59.00;33.90;96199.00;;;;5094958;28;20223;-91
2022/08/26 10:49:50;;;;;;;3.72;3.42;;;32.80;57.70;33.90;96202.00;;;;5095463;28;20191;-92
2022/08/26 10:52:23;;;;;;;5.72;3.55;;;32.90;58.20;33.90;96198.00;;;;5095402;28;20203;-90
2022/08/26 10:55:02;;;;;;;6.65;3.67;;;33.00;57.90;33.80;96202.00;;;;5095570;28;20203;-91
2022/08/26 10:57:50;;;;;;;4.95;3.50;;;33.00;56.20;33.70;96205.00;;;;5095235;28;20237;-91
2022/08/26 11:03:24;;;;;;;6.38;3.95;;;32.90;56.80;33.50;96202.00;;;;5095184;28;20256;-91
2022/08/26 11:06:21;;;;;;;5.63;3.42;;;32.90;56.30;33.40;96190.00;;;;5095111;28;20628;-90
2022/08/26 11:08:49;;;;;;;4.38;3.67;;;32.80;56.00;33.30;96193.00;;;;5096280;28;20198;-91
2022/08/26 11:11:49;;;;;;;5.93;3.83;;;32.70;56.70;33.20;96189.00;;;;5095238;28;20607;-92
2022/08/26 11:14:38;;;;;;;3.70;3.40;;;32.60;56.40;33.10;96190.00;;;;5098676;28;20254;-93
2022/08/26 11:17:11;;;;;;;4.85;4.05;;;32.50;56.30;33.10;96181.00;;;;5094809;28;20223;-91
2022/08/26 11:20:11;;;;;;;6.32;3.70;;;32.40;56.80;33.10;96177.00;;;;5094417;28;20692;-91
2022/08/26 11:22:39;;;;;;;3.83;3.53;;;32.30;56.80;33.10;96180.00;;;;5096333;28;20683;-91
2022/08/26 11:25:11;;;;;;;5.57;3.33;;;32.30;57.30;33.00;96179.00;;;;5095911;28;20253;-91